createdAt,value
2023-05-10T00:01:52.984Z,18.85
2023-05-10T00:04:20.120Z,18.63
2023-05-10T00:06:47.298Z,18.49
2023-05-10T00:09:14.614Z,18.75
2023-05-10T00:11:41.772Z,18.67
2023-05-10T00:14:10.353Z,18.63
2023-05-10T00:16:37.482Z,18.63
2023-05-10T00:19:04.720Z,18.61
2023-05-10T00:21:31.880Z,19.00
2023-05-10T00:23:58.926Z,18.76
2023-05-10T00:26:26.230Z,19.03
2023-05-10T00:28:55.971Z,18.87
2023-05-10T00:31:24.491Z,18.51
2023-05-10T00:33:51.604Z,18.96
2023-05-10T00:36:18.678Z,18.91
2023-05-10T00:38:45.814Z,18.81
2023-05-10T00:41:12.935Z,18.59
2023-05-10T00:43:41.210Z,18.89
2023-05-10T00:46:08.712Z,18.75
2023-05-10T00:48:37.329Z,18.61
2023-05-10T00:51:04.597Z,19.17
2023-05-10T00:53:32.595Z,18.66
2023-05-10T00:56:00.152Z,18.77
2023-05-10T00:58:27.620Z,18.25
2023-05-10T01:00:55.806Z,17.29
2023-05-10T01:03:23.488Z,17.18
2023-05-10T01:05:52.153Z,16.18
2023-05-10T01:08:19.418Z,17.67
2023-05-10T01:10:46.649Z,17.36
2023-05-10T01:13:14.703Z,17.29
2023-05-10T01:15:42.032Z,18.00
2023-05-10T01:18:09.789Z,18.30
2023-05-10T01:20:41.235Z,18.36
2023-05-10T01:23:29.608Z,18.32
2023-05-10T01:26:15.593Z,18.23
2023-05-10T01:29:03.549Z,18.24
2023-05-10T01:31:41.701Z,18.39
2023-05-10T01:34:14.039Z,18.42
2023-05-10T01:36:43.030Z,19.14
2023-05-10T01:39:12.952Z,19.13
2023-05-10T01:41:43.970Z,19.20
2023-05-10T01:44:14.325Z,18.59
2023-05-10T01:46:41.853Z,18.93
2023-05-10T01:49:12.226Z,18.83
2023-05-10T01:51:42.593Z,19.01
2023-05-10T01:54:11.243Z,18.76
2023-05-10T01:56:39.271Z,18.47
2023-05-10T01:59:09.245Z,18.37
2023-05-10T02:01:37.924Z,18.95
2023-05-10T02:04:05.966Z,18.44
2023-05-10T02:06:35.236Z,18.50
2023-05-10T02:09:02.864Z,18.53
2023-05-10T02:11:32.054Z,18.72
2023-05-10T02:14:00.043Z,18.74
2023-05-10T02:16:29.470Z,18.56
2023-05-10T02:18:57.952Z,18.23
2023-05-10T02:21:25.560Z,18.29
2023-05-10T02:23:54.859Z,18.21
2023-05-10T02:26:23.358Z,18.50
2023-05-10T02:28:50.712Z,18.31
2023-05-10T02:31:18.195Z,18.13
2023-05-10T02:33:46.905Z,18.60
2023-05-10T02:36:14.935Z,18.19
2023-05-10T02:38:42.246Z,18.79
2023-05-10T02:41:11.134Z,18.48
2023-05-10T02:43:38.800Z,18.38
2023-05-10T02:46:06.705Z,18.42
2023-05-10T02:48:36.202Z,18.80
2023-05-10T02:51:06.215Z,18.72
2023-05-10T02:53:35.641Z,18.66
2023-05-10T02:56:05.368Z,18.48
2023-05-10T02:58:33.945Z,18.65
2023-05-10T03:01:01.496Z,18.35
2023-05-10T03:03:28.674Z,18.46
2023-05-10T03:05:56.000Z,18.20
2023-05-10T03:08:23.637Z,17.97
2023-05-10T03:11:02.990Z,18.38
2023-05-10T03:13:33.199Z,18.52
2023-05-10T03:16:06.088Z,18.30
2023-05-10T03:18:37.061Z,18.28
2023-05-10T03:21:08.725Z,18.27
2023-05-10T03:23:36.777Z,18.02
2023-05-10T03:26:05.972Z,17.73
2023-05-10T03:28:34.483Z,17.60
2023-05-10T03:31:03.872Z,17.63
2023-05-10T03:33:32.258Z,17.99
2023-05-10T03:36:00.487Z,17.48
2023-05-10T03:38:30.360Z,17.41
2023-05-10T03:40:58.096Z,17.22
2023-05-10T03:43:25.755Z,17.57
2023-05-10T03:45:52.979Z,17.30
2023-05-10T03:48:22.005Z,16.19
2023-05-10T03:50:49.397Z,17.34
2023-05-10T03:53:16.640Z,16.68
2023-05-10T03:55:44.270Z,17.15
2023-05-10T03:58:12.342Z,17.43
2023-05-10T04:00:39.526Z,17.24
2023-05-10T04:03:07.009Z,17.02
2023-05-10T04:05:35.720Z,16.77
2023-05-10T04:08:03.445Z,16.87
2023-05-10T04:10:31.362Z,17.24
2023-05-10T04:12:58.464Z,17.54
2023-05-10T04:15:26.148Z,17.31
2023-05-10T04:17:53.257Z,17.35
2023-05-10T04:20:20.555Z,17.63
2023-05-10T04:22:49.239Z,16.51
2023-05-10T04:25:16.482Z,17.08
2023-05-10T04:27:44.093Z,17.66
2023-05-10T04:30:11.672Z,16.36
2023-05-10T04:32:38.914Z,16.92
2023-05-10T04:35:06.466Z,16.39
2023-05-10T04:37:33.683Z,17.56
2023-05-10T04:40:02.565Z,16.61
2023-05-10T04:42:29.740Z,16.82
2023-05-10T04:44:57.006Z,15.83
2023-05-10T04:47:24.135Z,15.74
2023-05-10T04:49:51.364Z,15.45
2023-05-10T04:52:18.554Z,16.90
2023-05-10T04:54:45.663Z,15.81
2023-05-10T04:57:14.467Z,17.99
2023-05-10T04:59:41.628Z,17.02
2023-05-10T05:02:09.230Z,15.81
2023-05-10T05:04:36.615Z,16.91
2023-05-10T05:07:03.726Z,17.71
2023-05-10T05:09:31.167Z,17.68
2023-05-10T05:11:58.496Z,16.57
2023-05-10T05:14:27.308Z,17.74
2023-05-10T05:16:54.611Z,19.12
2023-05-10T05:19:21.757Z,16.60
2023-05-10T05:21:48.948Z,16.64
2023-05-10T05:24:16.196Z,17.12
2023-05-10T05:26:43.454Z,19.31
2023-05-10T05:29:10.971Z,19.60
2023-05-10T05:31:40.015Z,19.23
2023-05-10T05:34:07.575Z,18.55
2023-05-10T05:36:37.702Z,15.55
2023-05-10T05:39:05.804Z,17.11
2023-05-10T05:41:33.593Z,18.89
2023-05-10T05:44:00.843Z,18.91
2023-05-10T05:46:28.889Z,18.95
2023-05-10T05:48:57.634Z,18.28
2023-05-10T05:51:24.830Z,18.28
2023-05-10T05:53:51.905Z,19.27
2023-05-10T05:56:19.023Z,17.83
2023-05-10T05:58:46.114Z,18.53
2023-05-10T06:01:13.239Z,18.52
2023-05-10T06:03:40.832Z,16.95
2023-05-10T06:06:09.631Z,17.84
2023-05-10T06:08:37.837Z,16.62
2023-05-10T06:11:06.193Z,17.17
2023-05-10T06:13:33.906Z,16.69
2023-05-10T06:16:01.867Z,17.24
2023-05-10T06:18:30.013Z,16.00
2023-05-10T06:20:57.105Z,17.27
2023-05-10T06:23:26.057Z,16.29
2023-05-10T06:25:53.147Z,16.79
2023-05-10T06:28:20.235Z,17.56
2023-05-10T06:30:47.300Z,17.18
2023-05-10T06:33:15.119Z,16.38
2023-05-10T06:35:42.171Z,15.72
2023-05-10T06:38:09.668Z,16.75
2023-05-10T06:40:42.213Z,17.02
2023-05-10T06:43:09.906Z,18.58
2023-05-10T06:45:37.073Z,16.95
2023-05-10T06:48:05.127Z,18.72
2023-05-10T06:50:32.971Z,17.23
2023-05-10T06:53:00.788Z,16.36
2023-05-10T06:55:28.522Z,17.76
2023-05-10T06:57:57.055Z,17.72
2023-05-10T07:00:24.188Z,16.44
2023-05-10T07:02:53.068Z,16.62
2023-05-10T07:05:23.448Z,15.82
2023-05-10T07:07:50.522Z,15.77
2023-05-10T07:10:17.726Z,15.23
2023-05-10T07:12:45.591Z,15.50
2023-05-10T07:15:16.150Z,15.75
2023-05-10T07:17:45.904Z,15.44
2023-05-10T07:20:14.062Z,16.83
2023-05-10T07:22:41.174Z,17.67
2023-05-10T07:25:08.694Z,17.17
2023-05-10T07:27:35.785Z,17.03
2023-05-10T07:30:03.524Z,17.76
2023-05-10T07:32:32.901Z,16.63
2023-05-10T07:35:00.196Z,17.10
2023-05-10T07:37:27.280Z,17.09
2023-05-10T07:39:54.329Z,17.29
2023-05-10T07:42:22.091Z,17.24
2023-05-10T07:44:49.123Z,15.50
2023-05-10T07:47:16.693Z,17.00
2023-05-10T07:49:45.762Z,17.20
2023-05-10T07:52:12.831Z,15.84
2023-05-10T07:54:41.170Z,16.49
2023-05-10T07:57:09.120Z,17.50
2023-05-10T07:59:36.221Z,17.02
2023-05-10T08:02:03.441Z,16.57
2023-05-10T08:04:30.610Z,14.61
2023-05-10T08:06:59.172Z,16.62
2023-05-10T08:09:26.296Z,16.67
2023-05-10T08:11:53.579Z,16.65
2023-05-10T08:14:20.743Z,16.81
2023-05-10T08:16:48.181Z,16.14
2023-05-10T08:19:15.785Z,16.37
2023-05-10T08:21:43.167Z,16.24
2023-05-10T08:24:11.779Z,16.18
2023-05-10T08:26:39.840Z,16.17
2023-05-10T08:29:07.392Z,16.21
2023-05-10T08:31:35.130Z,16.12
2023-05-10T08:34:02.382Z,15.35
2023-05-10T08:36:29.625Z,15.88
2023-05-10T08:38:57.187Z,15.70
2023-05-10T08:41:25.817Z,15.69
2023-05-10T08:43:53.218Z,16.11
2023-05-10T08:46:21.422Z,15.72
2023-05-10T08:48:49.368Z,15.33
2023-05-10T08:51:19.359Z,14.67
2023-05-10T08:53:47.536Z,15.05
2023-05-10T08:56:14.925Z,15.43
2023-05-10T08:58:44.331Z,15.53
2023-05-10T09:01:12.392Z,15.97
2023-05-10T09:03:40.598Z,15.73
2023-05-10T09:06:07.865Z,15.70
2023-05-10T09:08:35.508Z,14.78
2023-05-10T09:11:02.833Z,15.10
2023-05-10T09:13:30.690Z,16.37
2023-05-10T09:16:04.418Z,15.79
2023-05-10T09:18:37.219Z,15.60
2023-05-10T09:21:04.666Z,15.65
2023-05-10T09:23:31.931Z,15.95
2023-05-10T09:26:05.695Z,15.71
2023-05-10T09:28:33.592Z,15.11
2023-05-10T09:31:02.264Z,15.38
2023-05-10T09:33:29.385Z,15.84
2023-05-10T09:35:56.544Z,16.15
2023-05-10T09:38:23.823Z,15.70
2023-05-10T09:40:54.087Z,15.19
2023-05-10T09:43:21.710Z,14.60
2023-05-10T09:45:49.813Z,15.84
2023-05-10T09:48:18.935Z,16.08
2023-05-10T09:50:45.982Z,15.10
2023-05-10T09:53:15.503Z,15.37
2023-05-10T09:55:43.424Z,16.28
2023-05-10T09:58:10.554Z,15.36
2023-05-10T10:00:39.074Z,15.79
2023-05-10T10:03:06.546Z,16.24
2023-05-10T10:05:36.451Z,16.30
2023-05-10T10:08:04.954Z,15.99
2023-05-10T10:10:33.389Z,16.35
2023-05-10T10:13:01.175Z,15.81
2023-05-10T10:15:29.145Z,16.07
2023-05-10T10:17:56.517Z,15.53
2023-05-10T10:20:24.323Z,16.32
2023-05-10T10:22:52.947Z,15.59
2023-05-10T10:25:21.332Z,16.22
2023-05-10T10:27:55.780Z,16.29
2023-05-10T10:30:27.294Z,16.63
2023-05-10T10:33:16.600Z,16.16
2023-05-10T10:35:55.180Z,16.34
2023-05-10T10:38:24.507Z,15.17
2023-05-10T10:41:03.592Z,15.84
2023-05-10T10:43:31.839Z,16.09
2023-05-10T10:46:12.781Z,15.56
2023-05-10T10:48:40.545Z,15.79
2023-05-10T10:51:07.663Z,15.47
2023-05-10T10:53:38.724Z,15.53
2023-05-10T10:56:08.221Z,14.64
2023-05-10T10:58:36.393Z,14.86
2023-05-10T11:01:16.048Z,14.64
2023-05-10T11:04:16.025Z,14.43
2023-05-10T11:06:44.229Z,15.11
2023-05-10T11:09:14.333Z,14.50
2023-05-10T11:11:53.063Z,14.52
2023-05-10T11:14:22.127Z,15.15
2023-05-10T11:16:49.950Z,14.82
2023-05-10T11:19:18.347Z,14.77
2023-05-10T11:21:47.818Z,14.69
2023-05-10T11:24:18.191Z,14.50
2023-05-10T11:26:46.428Z,14.93
2023-05-10T11:29:15.310Z,13.89
2023-05-10T11:31:44.369Z,14.42
2023-05-10T11:34:11.960Z,13.95
2023-05-10T11:36:40.890Z,14.16
2023-05-10T11:39:08.341Z,14.31
2023-05-10T11:41:38.436Z,14.11
2023-05-10T11:44:05.828Z,14.19
2023-05-10T11:46:34.003Z,14.47
2023-05-10T11:49:03.133Z,13.96
2023-05-10T11:51:31.142Z,14.48
2023-05-10T11:53:58.909Z,14.44
2023-05-10T11:56:26.468Z,14.95
2023-05-10T11:58:56.673Z,14.60
2023-05-10T12:01:24.687Z,14.59
2023-05-10T12:03:53.001Z,14.73
2023-05-10T12:06:21.642Z,14.70
2023-05-10T12:08:50.477Z,14.27
2023-05-10T12:11:17.515Z,13.98
2023-05-10T12:13:45.814Z,14.88
2023-05-10T12:16:18.995Z,14.00
2023-05-10T12:18:49.184Z,14.61
2023-05-10T12:21:17.242Z,13.92
2023-05-10T12:23:46.770Z,14.51
2023-05-10T12:26:15.985Z,14.60
2023-05-10T12:28:43.129Z,14.19
2023-05-10T12:31:10.812Z,14.86
2023-05-10T12:33:41.768Z,14.13
2023-05-10T12:36:10.278Z,14.57
2023-05-10T12:38:38.681Z,15.01
2023-05-10T12:41:07.157Z,14.72
2023-05-10T12:43:35.362Z,15.06
2023-05-10T12:46:07.078Z,14.91
2023-05-10T12:48:34.467Z,14.38
2023-05-10T12:51:04.833Z,15.39
2023-05-10T12:53:32.446Z,15.21
2023-05-10T12:56:00.235Z,15.05
2023-05-10T12:58:35.468Z,15.49
2023-05-10T13:01:04.578Z,14.95
2023-05-10T13:03:32.310Z,14.94
2023-05-10T13:05:59.925Z,15.09
2023-05-10T13:08:29.270Z,15.16
2023-05-10T13:10:56.994Z,15.36
2023-05-10T13:13:24.053Z,15.58
2023-05-10T13:15:51.176Z,14.82
2023-05-10T13:18:18.583Z,14.36
2023-05-10T13:20:45.826Z,14.08
2023-05-10T13:23:13.929Z,14.13
2023-05-10T13:25:42.974Z,14.37
2023-05-10T13:28:10.425Z,14.09
2023-05-10T13:30:37.874Z,14.34
2023-05-10T13:33:05.035Z,13.96
2023-05-10T13:35:32.210Z,12.92
2023-05-10T13:37:59.350Z,12.58
2023-05-10T13:40:30.142Z,12.61
2023-05-10T13:42:58.663Z,12.49
2023-05-10T13:45:25.822Z,12.69
2023-05-10T13:47:53.433Z,12.30
2023-05-10T13:50:20.720Z,12.65
2023-05-10T13:52:48.649Z,12.56
2023-05-10T13:55:17.528Z,12.65
2023-05-10T13:57:45.839Z,11.93
2023-05-10T14:00:14.931Z,12.37
2023-05-10T14:02:43.084Z,12.12
2023-05-10T14:05:10.326Z,12.39
2023-05-10T14:07:37.394Z,12.66
2023-05-10T14:10:05.249Z,12.53
2023-05-10T14:12:33.069Z,12.32
2023-05-10T14:15:00.773Z,12.79
2023-05-10T14:17:29.382Z,12.28
2023-05-10T14:19:56.642Z,12.45
2023-05-10T14:22:24.490Z,12.76
2023-05-10T14:24:51.762Z,12.85
2023-05-10T14:27:19.080Z,13.04
2023-05-10T14:29:46.353Z,12.63
2023-05-10T14:32:13.947Z,12.77
2023-05-10T14:34:42.839Z,12.52
2023-05-10T14:37:11.504Z,12.41
2023-05-10T14:39:38.874Z,13.10
2023-05-10T14:42:06.016Z,12.45
2023-05-10T14:44:33.189Z,13.21
2023-05-10T14:47:00.352Z,12.85
2023-05-10T14:49:27.432Z,12.92
2023-05-10T14:51:56.069Z,12.83
2023-05-10T14:54:23.165Z,12.38
2023-05-10T14:56:50.780Z,13.01
2023-05-10T14:59:19.278Z,12.40
2023-05-10T15:01:47.128Z,13.26
2023-05-10T15:04:15.656Z,13.15
2023-05-10T15:06:43.311Z,13.38
2023-05-10T15:09:11.810Z,13.04
2023-05-10T15:11:40.181Z,13.34
2023-05-10T15:14:07.335Z,13.07
2023-05-10T15:16:36.304Z,12.71
2023-05-10T15:19:04.784Z,12.90
2023-05-10T15:21:32.029Z,12.80
2023-05-10T15:23:59.619Z,13.32
2023-05-10T15:26:28.132Z,13.09
2023-05-10T15:28:55.761Z,12.54
2023-05-10T15:31:24.483Z,12.88
2023-05-10T15:33:53.799Z,12.53
2023-05-10T15:36:22.163Z,13.15
2023-05-10T15:38:49.750Z,13.03
2023-05-10T15:41:17.227Z,13.10
2023-05-10T15:43:46.371Z,13.34
2023-05-10T15:46:13.503Z,12.60
2023-05-10T15:48:40.619Z,13.43
2023-05-10T15:51:08.324Z,13.52
2023-05-10T15:53:35.819Z,13.55
2023-05-10T15:56:03.522Z,13.29
2023-05-10T15:58:31.704Z,13.76
2023-05-10T16:01:00.868Z,13.85
2023-05-10T16:03:28.566Z,13.80
2023-05-10T16:05:55.837Z,13.51
2023-05-10T16:08:23.108Z,13.64
2023-05-10T16:10:51.246Z,13.49
2023-05-10T16:13:18.401Z,13.16
2023-05-10T16:15:46.595Z,13.32
2023-05-10T16:18:15.809Z,13.45
2023-05-10T16:20:42.881Z,12.71
2023-05-10T16:23:10.236Z,12.82
2023-05-10T16:25:37.581Z,12.87
2023-05-10T16:28:05.016Z,13.25
2023-05-10T16:30:32.340Z,13.03
2023-05-10T16:33:00.525Z,13.25
2023-05-10T16:35:30.274Z,13.20
2023-05-10T16:37:57.830Z,12.84
2023-05-10T16:40:25.290Z,13.22
2023-05-10T16:42:52.976Z,13.50
2023-05-10T16:45:20.470Z,13.37
2023-05-10T16:47:48.314Z,13.07
2023-05-10T16:50:15.952Z,12.94
2023-05-10T16:52:45.683Z,13.50
2023-05-10T16:55:12.804Z,13.47
2023-05-10T16:57:40.677Z,12.63
2023-05-10T17:00:08.899Z,13.42
2023-05-10T17:02:36.553Z,13.00
2023-05-10T17:05:04.595Z,13.70
2023-05-10T17:07:32.840Z,13.39
2023-05-10T17:10:02.778Z,13.53
2023-05-10T17:12:30.343Z,13.07
2023-05-10T17:14:57.894Z,13.12
2023-05-10T17:17:26.274Z,12.80
2023-05-10T17:19:53.908Z,13.26
2023-05-10T17:22:22.156Z,12.82
2023-05-10T17:24:50.326Z,13.38
2023-05-10T17:27:19.504Z,13.59
2023-05-10T17:29:47.713Z,13.39
2023-05-10T17:32:15.418Z,13.28
2023-05-10T17:34:42.905Z,13.20
2023-05-10T17:37:10.651Z,13.40
2023-05-10T17:39:39.926Z,13.33
2023-05-10T17:42:07.732Z,12.77
2023-05-10T17:44:37.398Z,13.42
2023-05-10T17:47:04.929Z,13.23
2023-05-10T17:49:33.559Z,13.42
2023-05-10T17:52:01.141Z,13.47
2023-05-10T17:54:29.251Z,13.23
2023-05-10T17:56:57.394Z,12.71
2023-05-10T17:59:25.537Z,12.92
2023-05-10T18:01:55.337Z,13.24
2023-05-10T18:04:23.446Z,12.38
2023-05-10T18:06:51.223Z,12.89
2023-05-10T18:09:18.953Z,13.17
2023-05-10T18:11:46.058Z,13.21
2023-05-10T18:14:14.617Z,13.17
2023-05-10T18:16:43.788Z,12.69
2023-05-10T18:19:13.623Z,13.17
2023-05-10T18:21:41.777Z,12.78
2023-05-10T18:24:09.887Z,13.41
2023-05-10T18:26:38.092Z,13.42
2023-05-10T18:29:06.857Z,13.06
2023-05-10T18:31:34.090Z,13.21
2023-05-10T18:34:03.013Z,13.10
2023-05-10T18:36:32.381Z,13.66
2023-05-10T18:39:00.512Z,12.92
2023-05-10T18:41:28.345Z,13.22
2023-05-10T18:43:56.434Z,13.81
2023-05-10T18:46:23.606Z,12.96
2023-05-10T18:48:51.963Z,14.13
2023-05-10T18:51:19.562Z,13.34
2023-05-10T18:53:48.112Z,13.92
2023-05-10T18:56:16.207Z,14.77
2023-05-10T18:58:43.555Z,13.81
2023-05-10T19:01:11.503Z,14.09
2023-05-10T19:03:39.725Z,14.29
2023-05-10T19:06:07.399Z,14.71
2023-05-10T19:08:34.464Z,13.90
2023-05-10T19:11:04.131Z,13.63
2023-05-10T19:13:31.184Z,14.50
2023-05-10T19:16:03.077Z,13.62
2023-05-10T19:18:33.034Z,13.92
2023-05-10T19:21:00.835Z,14.51
2023-05-10T19:23:28.416Z,14.23
2023-05-10T19:25:56.063Z,13.54
2023-05-10T19:28:25.692Z,14.43
2023-05-10T19:30:54.624Z,14.94
2023-05-10T19:33:22.880Z,14.28
2023-05-10T19:35:50.441Z,13.51
2023-05-10T19:38:21.548Z,13.44
2023-05-10T19:40:49.833Z,13.96
2023-05-10T19:43:17.930Z,13.60
2023-05-10T19:45:47.218Z,13.98
2023-05-10T19:48:16.215Z,13.58
2023-05-10T19:50:43.244Z,13.46
2023-05-10T19:53:11.046Z,13.65
2023-05-10T19:55:39.130Z,14.35
2023-05-10T19:58:06.787Z,14.49
2023-05-10T20:00:35.116Z,14.42
2023-05-10T20:03:05.910Z,13.61
2023-05-10T20:05:35.311Z,14.59
2023-05-10T20:08:03.019Z,14.55
2023-05-10T20:10:30.503Z,14.24
2023-05-10T20:12:58.240Z,14.69
2023-05-10T20:15:26.178Z,14.87
2023-05-10T20:17:53.805Z,14.76
2023-05-10T20:20:23.185Z,14.41
2023-05-10T20:22:51.463Z,13.89
2023-05-10T20:25:19.139Z,13.92
2023-05-10T20:27:46.598Z,13.95
2023-05-10T20:30:14.583Z,13.81
2023-05-10T20:32:42.060Z,13.88
2023-05-10T20:35:10.257Z,13.67
2023-05-10T20:37:39.480Z,13.05
2023-05-10T20:40:08.030Z,13.40
2023-05-10T20:42:35.485Z,13.14
2023-05-10T20:45:02.812Z,13.28
2023-05-10T20:47:30.288Z,13.62
2023-05-10T20:49:58.060Z,13.73
2023-05-10T20:52:25.897Z,13.33
2023-05-10T20:54:55.160Z,13.93
2023-05-10T20:57:22.274Z,13.96
2023-05-10T20:59:49.904Z,13.50
2023-05-10T21:02:17.579Z,13.60
2023-05-10T21:04:44.649Z,13.26
2023-05-10T21:07:11.824Z,13.63
2023-05-10T21:09:39.369Z,13.38
2023-05-10T21:12:09.975Z,13.26
2023-05-10T21:14:37.964Z,13.63
2023-05-10T21:17:05.533Z,13.30
2023-05-10T21:19:33.066Z,13.63
2023-05-10T21:22:00.777Z,13.62
2023-05-10T21:24:28.178Z,14.05
2023-05-10T21:26:55.591Z,14.30
2023-05-10T21:29:24.125Z,14.10
2023-05-10T21:31:51.697Z,13.40
2023-05-10T21:34:19.341Z,13.92
2023-05-10T21:36:46.771Z,14.02
2023-05-10T21:39:13.840Z,14.10
2023-05-10T21:41:41.357Z,14.32
2023-05-10T21:44:08.905Z,14.25
2023-05-10T21:46:37.547Z,14.32
2023-05-10T21:49:05.014Z,14.08
2023-05-10T21:51:32.403Z,14.15
2023-05-10T21:54:00.185Z,13.88
2023-05-10T21:56:28.101Z,14.32
2023-05-10T21:58:55.303Z,14.08
2023-05-10T22:01:22.659Z,14.50
2023-05-10T22:03:51.559Z,14.19
2023-05-10T22:06:18.905Z,14.05
2023-05-10T22:08:46.612Z,13.82
2023-05-10T22:11:13.792Z,14.50
2023-05-10T22:13:40.874Z,14.82
2023-05-10T22:16:08.941Z,13.91
2023-05-10T22:18:37.255Z,14.73
2023-05-10T22:21:09.350Z,14.17
2023-05-10T22:23:37.212Z,14.69
2023-05-10T22:26:05.013Z,14.71
2023-05-10T22:28:32.270Z,14.82
2023-05-10T22:31:00.085Z,14.47
2023-05-10T22:33:28.500Z,14.79
2023-05-10T22:35:56.144Z,14.79
2023-05-10T22:38:25.282Z,14.69
2023-05-10T22:40:52.572Z,14.95
2023-05-10T22:43:20.160Z,14.85
2023-05-10T22:45:48.157Z,15.16
2023-05-10T22:48:15.565Z,14.39
2023-05-10T22:50:43.311Z,14.90
2023-05-10T22:53:11.058Z,15.00
2023-05-10T22:55:40.158Z,14.31
2023-05-10T22:58:08.020Z,14.39
2023-05-10T23:00:35.336Z,14.44
2023-05-10T23:03:02.694Z,14.99
2023-05-10T23:05:29.920Z,14.91
2023-05-10T23:07:57.015Z,14.82
2023-05-10T23:10:24.761Z,14.96
2023-05-10T23:12:53.264Z,15.18
2023-05-10T23:15:20.720Z,14.47
2023-05-10T23:17:47.997Z,14.55
2023-05-10T23:20:15.251Z,15.28
2023-05-10T23:22:45.240Z,15.31
2023-05-10T23:25:12.400Z,14.81
2023-05-10T23:27:39.523Z,14.52
2023-05-10T23:30:09.007Z,15.27
2023-05-10T23:32:36.376Z,14.52
2023-05-10T23:35:03.734Z,15.01
2023-05-10T23:37:30.944Z,14.61
2023-05-10T23:39:58.145Z,14.83
2023-05-10T23:42:25.367Z,14.93
2023-05-10T23:44:53.268Z,14.92
2023-05-10T23:47:21.831Z,15.12
2023-05-10T23:49:50.059Z,15.17
2023-05-10T23:52:17.315Z,14.62
2023-05-10T23:54:45.867Z,14.62
2023-05-10T23:57:13.090Z,15.33
2023-05-10T23:59:40.211Z,14.88
